sensor_id;sensor_type;location;lat;lon;timestamp;P1;durP1;ratioP1;P2;durP2;ratioP2
75655;SDS011;64252;51.094;13.714;2023-01-13T00:00:48;1.13;;;0.32;;
75655;SDS011;64252;51.094;13.714;2023-01-13T00:03:14;0.68;;;0.20;;
75655;SDS011;64252;51.094;13.714;2023-01-13T00:05:39;0.70;;;0.15;;
75655;SDS011;64252;51.094;13.714;2023-01-13T00:08:05;0.73;;;0.25;;
75655;SDS011;64252;51.094;13.714;2023-01-13T00:10:31;0.77;;;0.28;;
75655;SDS011;64252;51.094;13.714;2023-01-13T00:12:58;0.40;;;0.10;;
75655;SDS011;64252;51.094;13.714;2023-01-13T00:15:23;0.75;;;0.22;;
75655;SDS011;64252;51.094;13.714;2023-01-13T00:17:49;0.85;;;0.22;;
75655;SDS011;64252;51.094;13.714;2023-01-13T00:20:15;1.60;;;0.30;;
75655;SDS011;64252;51.094;13.714;2023-01-13T00:22:40;1.25;;;0.20;;
75655;SDS011;64252;51.094;13.714;2023-01-13T00:25:06;0.70;;;0.17;;
75655;SDS011;64252;51.094;13.714;2023-01-13T00:27:32;0.80;;;0.20;;
75655;SDS011;64252;51.094;13.714;2023-01-13T00:29:58;0.75;;;0.22;;
75655;SDS011;64252;51.094;13.714;2023-01-13T00:32:24;0.63;;;0.30;;
75655;SDS011;64252;51.094;13.714;2023-01-13T00:34:50;0.77;;;0.20;;
75655;SDS011;64252;51.094;13.714;2023-01-13T00:37:15;1.33;;;0.30;;
75655;SDS011;64252;51.094;13.714;2023-01-13T00:39:43;0.98;;;0.30;;
75655;SDS011;64252;51.094;13.714;2023-01-13T00:42:09;1.33;;;0.30;;
75655;SDS011;64252;51.094;13.714;2023-01-13T00:44:53;1.10;;;0.25;;
75655;SDS011;64252;51.094;13.714;2023-01-13T00:47:19;1.70;;;0.10;;
75655;SDS011;64252;51.094;13.714;2023-01-13T00:49:44;0.95;;;0.30;;
75655;SDS011;64252;51.094;13.714;2023-01-13T00:52:10;1.00;;;0.30;;
75655;SDS011;64252;51.094;13.714;2023-01-13T00:54:36;1.30;;;0.20;;
75655;SDS011;64252;51.094;13.714;2023-01-13T00:57:02;1.15;;;0.30;;
75655;SDS011;64252;51.094;13.714;2023-01-13T00:59:28;2.65;;;0.30;;
75655;SDS011;64252;51.094;13.714;2023-01-13T01:01:54;1.17;;;0.30;;
75655;SDS011;64252;51.094;13.714;2023-01-13T01:04:20;0.80;;;0.30;;
75655;SDS011;64252;51.094;13.714;2023-01-13T01:06:45;1.60;;;0.20;;
75655;SDS011;64252;51.094;13.714;2023-01-13T01:09:11;1.60;;;0.25;;
75655;SDS011;64252;51.094;13.714;2023-01-13T01:11:38;1.15;;;0.40;;
75655;SDS011;64252;51.094;13.714;2023-01-13T01:14:04;0.73;;;0.20;;
75655;SDS011;64252;51.094;13.714;2023-01-13T01:16:30;2.28;;;0.28;;
75655;SDS011;64252;51.094;13.714;2023-01-13T01:18:57;1.45;;;0.38;;
75655;SDS011;64252;51.094;13.714;2023-01-13T01:21:25;1.00;;;0.28;;
75655;SDS011;64252;51.094;13.714;2023-01-13T01:23:51;0.88;;;0.22;;
75655;SDS011;64252;51.094;13.714;2023-01-13T01:26:20;0.35;;;0.10;;
75655;SDS011;64252;51.094;13.714;2023-01-13T01:28:47;0.95;;;0.38;;
75655;SDS011;64252;51.094;13.714;2023-01-13T01:31:15;0.82;;;0.30;;
75655;SDS011;64252;51.094;13.714;2023-01-13T01:33:42;0.68;;;0.30;;
75655;SDS011;64252;51.094;13.714;2023-01-13T01:36:10;2.03;;;0.30;;
75655;SDS011;64252;51.094;13.714;2023-01-13T01:38:36;1.55;;;0.30;;
75655;SDS011;64252;51.094;13.714;2023-01-13T01:41:03;1.65;;;0.40;;
75655;SDS011;64252;51.094;13.714;2023-01-13T01:43:48;1.05;;;0.20;;
75655;SDS011;64252;51.094;13.714;2023-01-13T01:46:46;1.30;;;0.30;;
75655;SDS011;64252;51.094;13.714;2023-01-13T01:49:13;0.90;;;0.30;;
75655;SDS011;64252;51.094;13.714;2023-01-13T01:52:05;1.95;;;0.40;;
75655;SDS011;64252;51.094;13.714;2023-01-13T01:55:02;1.02;;;0.20;;
75655;SDS011;64252;51.094;13.714;2023-01-13T02:00:00;1.35;;;0.20;;
75655;SDS011;64252;51.094;13.714;2023-01-13T02:02:37;1.17;;;0.32;;
75655;SDS011;64252;51.094;13.714;2023-01-13T02:05:04;1.70;;;0.50;;
75655;SDS011;64252;51.094;13.714;2023-01-13T02:07:30;1.25;;;0.38;;
75655;SDS011;64252;51.094;13.714;2023-01-13T02:09:58;0.80;;;0.20;;
75655;SDS011;64252;51.094;13.714;2023-01-13T02:12:28;1.00;;;0.25;;
75655;SDS011;64252;51.094;13.714;2023-01-13T02:35:18;3.42;;;0.40;;
75655;SDS011;64252;51.094;13.714;2023-01-13T02:37:48;0.52;;;0.20;;
75655;SDS011;64252;51.094;13.714;2023-01-13T02:43:44;0.85;;;0.30;;
75655;SDS011;64252;51.094;13.714;2023-01-13T02:46:33;1.00;;;0.30;;
75655;SDS011;64252;51.094;13.714;2023-01-13T02:49:02;1.67;;;0.30;;
75655;SDS011;64252;51.094;13.714;2023-01-13T02:51:31;1.20;;;0.47;;
75655;SDS011;64252;51.094;13.714;2023-01-13T02:54:17;0.90;;;0.20;;
75655;SDS011;64252;51.094;13.714;2023-01-13T02:56:47;1.25;;;0.30;;
75655;SDS011;64252;51.094;13.714;2023-01-13T02:59:17;3.38;;;1.25;;
75655;SDS011;64252;51.094;13.714;2023-01-13T03:01:44;2.90;;;1.10;;
75655;SDS011;64252;51.094;13.714;2023-01-13T03:04:13;4.88;;;1.60;;
75655;SDS011;64252;51.094;13.714;2023-01-13T03:07:09;4.68;;;2.17;;
75655;SDS011;64252;51.094;13.714;2023-01-13T03:09:49;1.92;;;0.57;;
75655;SDS011;64252;51.094;13.714;2023-01-13T03:12:38;2.17;;;0.85;;
75655;SDS011;64252;51.094;13.714;2023-01-13T03:15:13;2.20;;;0.60;;
75655;SDS011;64252;51.094;13.714;2023-01-13T03:17:54;0.82;;;0.30;;
75655;SDS011;64252;51.094;13.714;2023-01-13T03:20:51;1.17;;;0.40;;
75655;SDS011;64252;51.094;13.714;2023-01-13T03:23:37;0.63;;;0.20;;
75655;SDS011;64252;51.094;13.714;2023-01-13T03:28:43;1.15;;;0.30;;
75655;SDS011;64252;51.094;13.714;2023-01-13T03:31:19;1.42;;;0.30;;
75655;SDS011;64252;51.094;13.714;2023-01-13T03:33:50;1.05;;;0.30;;
75655;SDS011;64252;51.094;13.714;2023-01-13T03:36:21;0.80;;;0.20;;
75655;SDS011;64252;51.094;13.714;2023-01-13T03:38:55;0.43;;;0.10;;
75655;SDS011;64252;51.094;13.714;2023-01-13T03:44:32;1.55;;;0.35;;
75655;SDS011;64252;51.094;13.714;2023-01-13T03:47:10;0.70;;;0.20;;
75655;SDS011;64252;51.094;13.714;2023-01-13T03:49:56;1.40;;;0.20;;
75655;SDS011;64252;51.094;13.714;2023-01-13T03:52:28;1.35;;;0.20;;
75655;SDS011;64252;51.094;13.714;2023-01-13T03:54:59;0.75;;;0.20;;
75655;SDS011;64252;51.094;13.714;2023-01-13T03:57:33;1.70;;;0.20;;
75655;SDS011;64252;51.094;13.714;2023-01-13T04:00:06;1.13;;;0.25;;
75655;SDS011;64252;51.094;13.714;2023-01-13T04:05:18;0.43;;;0.10;;
75655;SDS011;64252;51.094;13.714;2023-01-13T04:13:27;0.52;;;0.20;;
75655;SDS011;64252;51.094;13.714;2023-01-13T04:15:56;0.82;;;0.20;;
75655;SDS011;64252;51.094;13.714;2023-01-13T04:18:24;0.90;;;0.30;;
75655;SDS011;64252;51.094;13.714;2023-01-13T04:20:52;0.55;;;0.10;;
75655;SDS011;64252;51.094;13.714;2023-01-13T04:23:20;1.60;;;0.20;;
75655;SDS011;64252;51.094;13.714;2023-01-13T04:25:46;0.32;;;0.10;;
75655;SDS011;64252;51.094;13.714;2023-01-13T04:28:13;0.35;;;0.10;;
75655;SDS011;64252;51.094;13.714;2023-01-13T04:30:40;0.98;;;0.52;;
75655;SDS011;64252;51.094;13.714;2023-01-13T04:33:06;0.57;;;0.15;;
75655;SDS011;64252;51.094;13.714;2023-01-13T04:35:32;0.75;;;0.15;;
75655;SDS011;64252;51.094;13.714;2023-01-13T04:38:00;0.43;;;0.10;;
75655;SDS011;64252;51.094;13.714;2023-01-13T04:40:27;0.90;;;0.28;;
75655;SDS011;64252;51.094;13.714;2023-01-13T04:42:53;0.65;;;0.10;;
75655;SDS011;64252;51.094;13.714;2023-01-13T04:45:19;0.47;;;0.20;;
75655;SDS011;64252;51.094;13.714;2023-01-13T04:47:44;0.90;;;0.10;;
75655;SDS011;64252;51.094;13.714;2023-01-13T04:50:11;1.13;;;0.25;;
75655;SDS011;64252;51.094;13.714;2023-01-13T04:52:37;2.08;;;0.30;;
75655;SDS011;64252;51.094;13.714;2023-01-13T04:55:03;1.10;;;0.20;;
75655;SDS011;64252;51.094;13.714;2023-01-13T04:57:29;1.40;;;0.17;;
75655;SDS011;64252;51.094;13.714;2023-01-13T04:59:54;0.90;;;0.10;;
75655;SDS011;64252;51.094;13.714;2023-01-13T05:02:22;0.65;;;0.20;;
75655;SDS011;64252;51.094;13.714;2023-01-13T05:04:47;2.28;;;0.17;;
75655;SDS011;64252;51.094;13.714;2023-01-13T05:07:14;2.33;;;0.30;;
75655;SDS011;64252;51.094;13.714;2023-01-13T05:09:41;0.90;;;0.20;;
75655;SDS011;64252;51.094;13.714;2023-01-13T05:12:08;0.90;;;0.30;;
75655;SDS011;64252;51.094;13.714;2023-01-13T05:14:53;0.70;;;0.10;;
75655;SDS011;64252;51.094;13.714;2023-01-13T05:17:37;2.05;;;0.20;;
75655;SDS011;64252;51.094;13.714;2023-01-13T05:20:03;0.43;;;0.15;;
75655;SDS011;64252;51.094;13.714;2023-01-13T05:22:30;1.55;;;0.40;;
75655;SDS011;64252;51.094;13.714;2023-01-13T05:25:14;0.50;;;0.10;;
75655;SDS011;64252;51.094;13.714;2023-01-13T05:27:58;0.60;;;0.20;;
75655;SDS011;64252;51.094;13.714;2023-01-13T05:30:25;0.40;;;0.25;;
75655;SDS011;64252;51.094;13.714;2023-01-13T05:32:53;0.20;;;0.20;;
75655;SDS011;64252;51.094;13.714;2023-01-13T05:35:18;0.40;;;0.15;;
75655;SDS011;64252;51.094;13.714;2023-01-13T05:37:44;1.20;;;0.30;;
75655;SDS011;64252;51.094;13.714;2023-01-13T05:40:11;0.73;;;0.20;;
75655;SDS011;64252;51.094;13.714;2023-01-13T05:42:59;1.55;;;0.20;;
75655;SDS011;64252;51.094;13.714;2023-01-13T05:45:44;1.85;;;0.20;;
75655;SDS011;64252;51.094;13.714;2023-01-13T05:48:26;0.68;;;0.22;;
75655;SDS011;64252;51.094;13.714;2023-01-13T05:50:54;1.05;;;0.40;;
75655;SDS011;64252;51.094;13.714;2023-01-13T05:53:20;3.95;;;1.40;;
75655;SDS011;64252;51.094;13.714;2023-01-13T05:55:47;1.85;;;0.50;;
75655;SDS011;64252;51.094;13.714;2023-01-13T05:58:13;0.90;;;0.20;;
75655;SDS011;64252;51.094;13.714;2023-01-13T06:00:40;2.50;;;0.80;;
75655;SDS011;64252;51.094;13.714;2023-01-13T06:03:06;2.25;;;0.60;;
75655;SDS011;64252;51.094;13.714;2023-01-13T06:05:32;2.00;;;0.57;;
75655;SDS011;64252;51.094;13.714;2023-01-13T06:07:59;2.40;;;0.60;;
75655;SDS011;64252;51.094;13.714;2023-01-13T06:10:25;2.50;;;0.63;;
75655;SDS011;64252;51.094;13.714;2023-01-13T06:12:52;2.33;;;0.70;;
75655;SDS011;64252;51.094;13.714;2023-01-13T06:15:18;1.85;;;0.52;;
75655;SDS011;64252;51.094;13.714;2023-01-13T06:17:44;1.52;;;0.40;;
75655;SDS011;64252;51.094;13.714;2023-01-13T06:20:10;1.65;;;0.30;;
75655;SDS011;64252;51.094;13.714;2023-01-13T06:22:47;1.75;;;0.50;;
75655;SDS011;64252;51.094;13.714;2023-01-13T06:27:55;4.78;;;0.85;;
75655;SDS011;64252;51.094;13.714;2023-01-13T06:30:24;1.42;;;0.32;;
75655;SDS011;64252;51.094;13.714;2023-01-13T06:32:56;1.60;;;0.50;;
75655;SDS011;64252;51.094;13.714;2023-01-13T06:35:24;1.10;;;0.20;;
75655;SDS011;64252;51.094;13.714;2023-01-13T06:37:55;1.73;;;0.70;;
75655;SDS011;64252;51.094;13.714;2023-01-13T06:40:24;3.20;;;1.00;;
75655;SDS011;64252;51.094;13.714;2023-01-13T06:42:51;0.65;;;0.17;;
75655;SDS011;64252;51.094;13.714;2023-01-13T06:45:38;2.00;;;0.70;;
75655;SDS011;64252;51.094;13.714;2023-01-13T06:48:04;1.33;;;0.40;;
75655;SDS011;64252;51.094;13.714;2023-01-13T06:50:30;1.35;;;0.30;;
75655;SDS011;64252;51.094;13.714;2023-01-13T06:52:55;0.43;;;0.20;;
75655;SDS011;64252;51.094;13.714;2023-01-13T06:55:21;0.70;;;0.20;;
75655;SDS011;64252;51.094;13.714;2023-01-13T06:57:52;1.42;;;0.40;;
75655;SDS011;64252;51.094;13.714;2023-01-13T07:00:20;0.88;;;0.25;;
75655;SDS011;64252;51.094;13.714;2023-01-13T07:02:47;1.30;;;0.40;;
75655;SDS011;64252;51.094;13.714;2023-01-13T07:05:14;1.48;;;0.40;;
75655;SDS011;64252;51.094;13.714;2023-01-13T07:07:40;0.50;;;0.10;;
75655;SDS011;64252;51.094;13.714;2023-01-13T07:10:06;0.60;;;0.22;;
75655;SDS011;64252;51.094;13.714;2023-01-13T07:12:34;0.35;;;0.10;;
75655;SDS011;64252;51.094;13.714;2023-01-13T07:15:21;0.52;;;0.10;;
75655;SDS011;64252;51.094;13.714;2023-01-13T07:17:47;2.35;;;0.40;;
75655;SDS011;64252;51.094;13.714;2023-01-13T07:20:13;1.10;;;0.30;;
75655;SDS011;64252;51.094;13.714;2023-01-13T07:22:39;0.73;;;0.20;;
75655;SDS011;64252;51.094;13.714;2023-01-13T07:25:05;0.70;;;0.20;;
75655;SDS011;64252;51.094;13.714;2023-01-13T07:27:31;1.02;;;0.30;;
75655;SDS011;64252;51.094;13.714;2023-01-13T07:29:57;0.73;;;0.17;;
75655;SDS011;64252;51.094;13.714;2023-01-13T07:32:22;0.77;;;0.20;;
75655;SDS011;64252;51.094;13.714;2023-01-13T07:34:47;0.65;;;0.20;;
75655;SDS011;64252;51.094;13.714;2023-01-13T07:37:13;0.93;;;0.20;;
75655;SDS011;64252;51.094;13.714;2023-01-13T07:39:39;0.38;;;0.10;;
75655;SDS011;64252;51.094;13.714;2023-01-13T07:42:04;1.65;;;0.20;;
75655;SDS011;64252;51.094;13.714;2023-01-13T07:44:48;1.85;;;0.30;;
75655;SDS011;64252;51.094;13.714;2023-01-13T07:47:13;0.82;;;0.25;;
75655;SDS011;64252;51.094;13.714;2023-01-13T07:49:39;0.93;;;0.28;;
75655;SDS011;64252;51.094;13.714;2023-01-13T07:52:05;1.80;;;0.22;;
75655;SDS011;64252;51.094;13.714;2023-01-13T07:54:30;2.15;;;0.40;;
75655;SDS011;64252;51.094;13.714;2023-01-13T07:56:56;0.68;;;0.20;;
75655;SDS011;64252;51.094;13.714;2023-01-13T07:59:21;1.60;;;0.20;;
75655;SDS011;64252;51.094;13.714;2023-01-13T08:01:47;1.25;;;0.30;;
75655;SDS011;64252;51.094;13.714;2023-01-13T08:04:12;0.65;;;0.20;;
75655;SDS011;64252;51.094;13.714;2023-01-13T08:06:38;1.17;;;0.30;;
75655;SDS011;64252;51.094;13.714;2023-01-13T08:09:07;1.75;;;0.50;;
75655;SDS011;64252;51.094;13.714;2023-01-13T08:11:32;2.30;;;0.63;;
75655;SDS011;64252;51.094;13.714;2023-01-13T08:13:58;2.00;;;0.50;;
75655;SDS011;64252;51.094;13.714;2023-01-13T08:16:23;1.40;;;0.50;;
75655;SDS011;64252;51.094;13.714;2023-01-13T08:18:49;1.50;;;0.50;;
75655;SDS011;64252;51.094;13.714;2023-01-13T08:21:14;5.38;;;0.57;;
75655;SDS011;64252;51.094;13.714;2023-01-13T08:23:42;1.08;;;0.30;;
75655;SDS011;64252;51.094;13.714;2023-01-13T08:26:09;0.68;;;0.22;;
75655;SDS011;64252;51.094;13.714;2023-01-13T08:28:37;1.00;;;0.30;;
75655;SDS011;64252;51.094;13.714;2023-01-13T08:31:05;1.48;;;0.40;;
75655;SDS011;64252;51.094;13.714;2023-01-13T08:33:32;1.08;;;0.30;;
75655;SDS011;64252;51.094;13.714;2023-01-13T08:36:01;1.05;;;0.30;;
75655;SDS011;64252;51.094;13.714;2023-01-13T08:38:28;0.90;;;0.22;;
75655;SDS011;64252;51.094;13.714;2023-01-13T08:40:53;0.22;;;0.10;;
75655;SDS011;64252;51.094;13.714;2023-01-13T08:43:19;0.90;;;0.28;;
75655;SDS011;64252;51.094;13.714;2023-01-13T08:45:44;0.85;;;0.30;;
75655;SDS011;64252;51.094;13.714;2023-01-13T08:48:10;1.00;;;0.22;;
75655;SDS011;64252;51.094;13.714;2023-01-13T08:50:35;0.63;;;0.13;;
75655;SDS011;64252;51.094;13.714;2023-01-13T08:53:02;1.15;;;0.28;;
75655;SDS011;64252;51.094;13.714;2023-01-13T08:55:30;0.88;;;0.20;;
75655;SDS011;64252;51.094;13.714;2023-01-13T08:57:56;1.02;;;0.20;;
75655;SDS011;64252;51.094;13.714;2023-01-13T09:00:21;1.23;;;0.20;;
75655;SDS011;64252;51.094;13.714;2023-01-13T09:02:47;0.80;;;0.22;;
75655;SDS011;64252;51.094;13.714;2023-01-13T09:05:12;1.00;;;0.40;;
75655;SDS011;64252;51.094;13.714;2023-01-13T09:07:38;1.05;;;0.30;;
75655;SDS011;64252;51.094;13.714;2023-01-13T09:10:04;1.00;;;0.17;;
75655;SDS011;64252;51.094;13.714;2023-01-13T09:12:31;0.93;;;0.30;;
75655;SDS011;64252;51.094;13.714;2023-01-13T09:15:15;0.95;;;0.30;;
75655;SDS011;64252;51.094;13.714;2023-01-13T09:17:44;1.17;;;0.30;;
75655;SDS011;64252;51.094;13.714;2023-01-13T09:20:10;1.13;;;0.30;;
75655;SDS011;64252;51.094;13.714;2023-01-13T09:22:36;1.50;;;0.40;;
75655;SDS011;64252;51.094;13.714;2023-01-13T09:25:03;1.75;;;0.40;;
75655;SDS011;64252;51.094;13.714;2023-01-13T09:27:29;2.53;;;0.88;;
75655;SDS011;64252;51.094;13.714;2023-01-13T09:29:54;3.45;;;1.33;;
75655;SDS011;64252;51.094;13.714;2023-01-13T09:32:21;6.38;;;3.30;;
75655;SDS011;64252;51.094;13.714;2023-01-13T09:34:46;4.20;;;0.98;;
75655;SDS011;64252;51.094;13.714;2023-01-13T09:37:24;2.15;;;0.57;;
75655;SDS011;64252;51.094;13.714;2023-01-13T09:39:53;8.65;;;3.53;;
75655;SDS011;64252;51.094;13.714;2023-01-13T09:45:35;13.75;;;6.22;;
75655;SDS011;64252;51.094;13.714;2023-01-13T09:48:23;3.45;;;1.05;;
75655;SDS011;64252;51.094;13.714;2023-01-13T09:51:14;3.35;;;0.80;;
75655;SDS011;64252;51.094;13.714;2023-01-13T09:53:52;2.97;;;0.40;;
75655;SDS011;64252;51.094;13.714;2023-01-13T09:56:23;1.50;;;0.30;;
75655;SDS011;64252;51.094;13.714;2023-01-13T09:58:50;0.95;;;0.22;;
75655;SDS011;64252;51.094;13.714;2023-01-13T10:01:31;0.70;;;0.20;;
75655;SDS011;64252;51.094;13.714;2023-01-13T10:04:07;1.45;;;0.40;;
75655;SDS011;64252;51.094;13.714;2023-01-13T10:06:39;1.23;;;0.30;;
75655;SDS011;64252;51.094;13.714;2023-01-13T10:09:16;2.25;;;0.28;;
75655;SDS011;64252;51.094;13.714;2023-01-13T10:11:46;1.15;;;0.20;;
75655;SDS011;64252;51.094;13.714;2023-01-13T10:14:43;3.03;;;0.50;;
75655;SDS011;64252;51.094;13.714;2023-01-13T10:30:48;2.70;;;0.50;;
75655;SDS011;64252;51.094;13.714;2023-01-13T10:33:18;2.80;;;0.40;;
75655;SDS011;64252;51.094;13.714;2023-01-13T10:35:57;1.75;;;0.40;;
75655;SDS011;64252;51.094;13.714;2023-01-13T10:38:24;1.95;;;0.40;;
75655;SDS011;64252;51.094;13.714;2023-01-13T10:43:37;2.75;;;0.50;;
75655;SDS011;64252;51.094;13.714;2023-01-13T10:48:38;1.48;;;0.43;;
75655;SDS011;64252;51.094;13.714;2023-01-13T10:51:19;1.92;;;0.50;;
75655;SDS011;64252;51.094;13.714;2023-01-13T10:53:53;1.83;;;0.43;;
75655;SDS011;64252;51.094;13.714;2023-01-13T10:56:19;2.63;;;0.40;;
75655;SDS011;64252;51.094;13.714;2023-01-13T10:58:47;1.80;;;0.32;;
75655;SDS011;64252;51.094;13.714;2023-01-13T11:01:23;1.80;;;0.30;;
75655;SDS011;64252;51.094;13.714;2023-01-13T11:03:51;1.17;;;0.30;;
75655;SDS011;64252;51.094;13.714;2023-01-13T11:06:27;3.78;;;0.90;;
75655;SDS011;64252;51.094;13.714;2023-01-13T11:08:55;2.15;;;0.63;;
75655;SDS011;64252;51.094;13.714;2023-01-13T11:14:07;3.50;;;0.80;;
75655;SDS011;64252;51.094;13.714;2023-01-13T11:17:15;3.28;;;1.05;;
75655;SDS011;64252;51.094;13.714;2023-01-13T11:19:46;3.92;;;0.88;;
75655;SDS011;64252;51.094;13.714;2023-01-13T11:22:31;2.13;;;0.60;;
75655;SDS011;64252;51.094;13.714;2023-01-13T11:25:04;2.88;;;0.60;;
75655;SDS011;64252;51.094;13.714;2023-01-13T11:27:42;2.83;;;0.50;;
75655;SDS011;64252;51.094;13.714;2023-01-13T11:30:22;2.20;;;0.63;;
75655;SDS011;64252;51.094;13.714;2023-01-13T11:35:57;1.63;;;0.52;;
75655;SDS011;64252;51.094;13.714;2023-01-13T11:41:19;2.15;;;0.63;;
75655;SDS011;64252;51.094;13.714;2023-01-13T11:44:12;2.13;;;0.50;;
75655;SDS011;64252;51.094;13.714;2023-01-13T11:46:43;1.85;;;0.40;;
75655;SDS011;64252;51.094;13.714;2023-01-13T11:49:20;1.92;;;0.38;;
75655;SDS011;64252;51.094;13.714;2023-01-13T11:54:45;1.70;;;0.40;;
75655;SDS011;64252;51.094;13.714;2023-01-13T12:00:19;2.10;;;0.20;;
75655;SDS011;64252;51.094;13.714;2023-01-13T12:05:46;2.78;;;0.30;;
75655;SDS011;64252;51.094;13.714;2023-01-13T12:08:15;1.23;;;0.20;;
75655;SDS011;64252;51.094;13.714;2023-01-13T12:16:10;3.15;;;0.30;;
75655;SDS011;64252;51.094;13.714;2023-01-13T12:21:22;3.45;;;0.43;;
75655;SDS011;64252;51.094;13.714;2023-01-13T12:26:17;1.20;;;0.30;;
75655;SDS011;64252;51.094;13.714;2023-01-13T12:28:44;2.22;;;0.32;;
75655;SDS011;64252;51.094;13.714;2023-01-13T12:31:10;3.08;;;0.63;;
75655;SDS011;64252;51.094;13.714;2023-01-13T12:39:00;2.47;;;0.40;;
75655;SDS011;64252;51.094;13.714;2023-01-13T12:45:03;2.15;;;0.40;;
75655;SDS011;64252;51.094;13.714;2023-01-13T12:47:45;1.38;;;0.30;;
75655;SDS011;64252;51.094;13.714;2023-01-13T12:52:55;0.90;;;0.20;;
75655;SDS011;64252;51.094;13.714;2023-01-13T13:00:33;0.90;;;0.30;;
75655;SDS011;64252;51.094;13.714;2023-01-13T13:11:43;2.17;;;0.30;;
75655;SDS011;64252;51.094;13.714;2023-01-13T13:17:22;2.97;;;0.43;;
75655;SDS011;64252;51.094;13.714;2023-01-13T13:19:56;2.17;;;0.40;;
75655;SDS011;64252;51.094;13.714;2023-01-13T13:27:17;4.05;;;0.55;;
75655;SDS011;64252;51.094;13.714;2023-01-13T13:32:38;5.45;;;1.15;;
75655;SDS011;64252;51.094;13.714;2023-01-13T13:40:42;1.25;;;0.30;;
75655;SDS011;64252;51.094;13.714;2023-01-13T13:43:29;2.17;;;0.45;;
75655;SDS011;64252;51.094;13.714;2023-01-13T13:46:30;1.35;;;0.35;;
75655;SDS011;64252;51.094;13.714;2023-01-13T13:49:14;1.65;;;0.30;;
75655;SDS011;64252;51.094;13.714;2023-01-13T13:51:50;2.50;;;0.60;;
75655;SDS011;64252;51.094;13.714;2023-01-13T13:54:23;2.25;;;0.50;;
75655;SDS011;64252;51.094;13.714;2023-01-13T13:56:49;1.67;;;0.45;;
75655;SDS011;64252;51.094;13.714;2023-01-13T13:59:20;3.00;;;0.38;;
75655;SDS011;64252;51.094;13.714;2023-01-13T14:01:50;2.88;;;0.68;;
75655;SDS011;64252;51.094;13.714;2023-01-13T14:04:26;1.65;;;0.40;;
75655;SDS011;64252;51.094;13.714;2023-01-13T14:09:25;1.88;;;0.35;;
75655;SDS011;64252;51.094;13.714;2023-01-13T14:11:55;2.03;;;0.30;;
75655;SDS011;64252;51.094;13.714;2023-01-13T14:14:25;1.83;;;0.40;;
75655;SDS011;64252;51.094;13.714;2023-01-13T14:16:51;2.38;;;0.70;;
75655;SDS011;64252;51.094;13.714;2023-01-13T14:19:24;2.03;;;0.50;;
75655;SDS011;64252;51.094;13.714;2023-01-13T14:21:50;3.03;;;0.57;;
75655;SDS011;64252;51.094;13.714;2023-01-13T14:24:18;2.83;;;0.40;;
75655;SDS011;64252;51.094;13.714;2023-01-13T14:26:46;2.20;;;0.28;;
75655;SDS011;64252;51.094;13.714;2023-01-13T14:29:18;1.83;;;0.40;;
75655;SDS011;64252;51.094;13.714;2023-01-13T14:31:50;2.58;;;0.80;;
75655;SDS011;64252;51.094;13.714;2023-01-13T14:34:19;1.90;;;0.40;;
75655;SDS011;64252;51.094;13.714;2023-01-13T14:36:46;2.55;;;0.40;;
75655;SDS011;64252;51.094;13.714;2023-01-13T14:46:47;1.00;;;0.25;;
75655;SDS011;64252;51.094;13.714;2023-01-13T14:49:24;1.65;;;0.30;;
75655;SDS011;64252;51.094;13.714;2023-01-13T14:52:19;2.80;;;0.85;;
75655;SDS011;64252;51.094;13.714;2023-01-13T14:55:18;4.18;;;0.38;;
75655;SDS011;64252;51.094;13.714;2023-01-13T15:03:51;5.45;;;1.42;;
75655;SDS011;64252;51.094;13.714;2023-01-13T15:06:24;2.17;;;0.55;;
75655;SDS011;64252;51.094;13.714;2023-01-13T15:08:50;1.63;;;0.40;;
75655;SDS011;64252;51.094;13.714;2023-01-13T15:11:18;1.85;;;0.47;;
75655;SDS011;64252;51.094;13.714;2023-01-13T15:13:48;2.53;;;0.30;;
75655;SDS011;64252;51.094;13.714;2023-01-13T15:16:34;1.77;;;0.30;;
75655;SDS011;64252;51.094;13.714;2023-01-13T15:19:01;1.23;;;0.30;;
75655;SDS011;64252;51.094;13.714;2023-01-13T15:21:27;4.60;;;0.35;;
75655;SDS011;64252;51.094;13.714;2023-01-13T15:23:54;1.40;;;0.30;;
75655;SDS011;64252;51.094;13.714;2023-01-13T15:26:20;3.67;;;0.60;;
75655;SDS011;64252;51.094;13.714;2023-01-13T15:28:49;5.78;;;0.60;;
75655;SDS011;64252;51.094;13.714;2023-01-13T15:31:16;3.38;;;0.65;;
75655;SDS011;64252;51.094;13.714;2023-01-13T15:33:41;1.42;;;0.35;;
75655;SDS011;64252;51.094;13.714;2023-01-13T15:38:56;5.68;;;0.60;;
75655;SDS011;64252;51.094;13.714;2023-01-13T15:41:23;2.38;;;0.60;;
75655;SDS011;64252;51.094;13.714;2023-01-13T15:44:09;4.10;;;0.73;;
75655;SDS011;64252;51.094;13.714;2023-01-13T15:46:54;4.13;;;0.80;;
75655;SDS011;64252;51.094;13.714;2023-01-13T15:49:25;2.47;;;0.65;;
75655;SDS011;64252;51.094;13.714;2023-01-13T15:52:00;4.25;;;1.27;;
75655;SDS011;64252;51.094;13.714;2023-01-13T15:54:27;2.85;;;1.00;;
75655;SDS011;64252;51.094;13.714;2023-01-13T15:56:53;5.38;;;2.60;;
75655;SDS011;64252;51.094;13.714;2023-01-13T15:59:20;3.72;;;1.88;;
75655;SDS011;64252;51.094;13.714;2023-01-13T16:01:48;5.00;;;1.75;;
75655;SDS011;64252;51.094;13.714;2023-01-13T16:04:14;4.25;;;1.60;;
75655;SDS011;64252;51.094;13.714;2023-01-13T16:06:39;5.05;;;2.20;;
75655;SDS011;64252;51.094;13.714;2023-01-13T16:09:05;7.13;;;2.42;;
75655;SDS011;64252;51.094;13.714;2023-01-13T16:11:31;6.72;;;2.60;;
75655;SDS011;64252;51.094;13.714;2023-01-13T16:13:56;5.35;;;2.28;;
75655;SDS011;64252;51.094;13.714;2023-01-13T16:16:23;5.00;;;2.10;;
75655;SDS011;64252;51.094;13.714;2023-01-13T16:18:51;5.50;;;1.40;;
75655;SDS011;64252;51.094;13.714;2023-01-13T16:21:18;3.50;;;1.25;;
75655;SDS011;64252;51.094;13.714;2023-01-13T16:23:46;3.50;;;1.42;;
75655;SDS011;64252;51.094;13.714;2023-01-13T16:26:20;4.63;;;1.83;;
75655;SDS011;64252;51.094;13.714;2023-01-13T16:28:48;5.05;;;2.30;;
75655;SDS011;64252;51.094;13.714;2023-01-13T16:31:48;4.55;;;2.25;;
75655;SDS011;64252;51.094;13.714;2023-01-13T16:34:06;5.57;;;2.58;;
75655;SDS011;64252;51.094;13.714;2023-01-13T16:36:34;4.43;;;2.05;;
75655;SDS011;64252;51.094;13.714;2023-01-13T16:39:01;5.45;;;1.90;;
75655;SDS011;64252;51.094;13.714;2023-01-13T16:41:27;4.38;;;1.60;;
75655;SDS011;64252;51.094;13.714;2023-01-13T16:43:52;3.55;;;1.27;;
75655;SDS011;64252;51.094;13.714;2023-01-13T16:48:49;3.95;;;1.52;;
75655;SDS011;64252;51.094;13.714;2023-01-13T16:51:17;3.97;;;1.63;;
75655;SDS011;64252;51.094;13.714;2023-01-13T16:53:42;5.10;;;1.77;;
75655;SDS011;64252;51.094;13.714;2023-01-13T16:56:27;4.85;;;1.58;;
75655;SDS011;64252;51.094;13.714;2023-01-13T16:58:58;6.35;;;1.70;;
75655;SDS011;64252;51.094;13.714;2023-01-13T17:01:33;3.72;;;1.35;;
75655;SDS011;64252;51.094;13.714;2023-01-13T17:04:01;6.95;;;1.58;;
75655;SDS011;64252;51.094;13.714;2023-01-13T17:06:29;3.92;;;1.20;;
75655;SDS011;64252;51.094;13.714;2023-01-13T17:09:07;5.65;;;1.70;;
75655;SDS011;64252;51.094;13.714;2023-01-13T17:11:43;5.22;;;1.80;;
75655;SDS011;64252;51.094;13.714;2023-01-13T17:14:08;6.50;;;1.80;;
75655;SDS011;64252;51.094;13.714;2023-01-13T17:16:34;5.50;;;1.38;;
75655;SDS011;64252;51.094;13.714;2023-01-13T17:19:00;6.30;;;1.83;;
75655;SDS011;64252;51.094;13.714;2023-01-13T17:21:26;7.38;;;2.10;;
75655;SDS011;64252;51.094;13.714;2023-01-13T17:23:53;7.25;;;2.17;;
75655;SDS011;64252;51.094;13.714;2023-01-13T17:29:13;6.00;;;2.50;;
75655;SDS011;64252;51.094;13.714;2023-01-13T17:31:40;6.35;;;2.70;;